sensor_id;sensor_type;location;lat;lon;timestamp;P1;durP1;ratioP1;P2;durP2;ratioP2
17494;SDS011;8864;51.970;4.614;2023-02-19T00:02:07;8.60;;;1.70;;
17494;SDS011;8864;51.970;4.614;2023-02-19T00:04:34;10.65;;;2.28;;
17494;SDS011;8864;51.970;4.614;2023-02-19T00:07:01;8.73;;;1.80;;
17494;SDS011;8864;51.970;4.614;2023-02-19T00:09:31;6.93;;;1.90;;
17494;SDS011;8864;51.970;4.614;2023-02-19T00:12:01;6.13;;;1.70;;
17494;SDS011;8864;51.970;4.614;2023-02-19T00:14:30;7.38;;;1.67;;
17494;SDS011;8864;51.970;4.614;2023-02-19T00:16:59;7.22;;;1.73;;
17494;SDS011;8864;51.970;4.614;2023-02-19T00:19:31;9.10;;;1.77;;
17494;SDS011;8864;51.970;4.614;2023-02-19T00:21:58;7.03;;;1.83;;
17494;SDS011;8864;51.970;4.614;2023-02-19T00:24:29;7.57;;;2.00;;
17494;SDS011;8864;51.970;4.614;2023-02-19T00:27:00;7.32;;;1.60;;
17494;SDS011;8864;51.970;4.614;2023-02-19T00:29:29;4.32;;;1.77;;
17494;SDS011;8864;51.970;4.614;2023-02-19T00:31:56;5.65;;;1.60;;
17494;SDS011;8864;51.970;4.614;2023-02-19T00:34:25;7.88;;;1.75;;
17494;SDS011;8864;51.970;4.614;2023-02-19T00:36:52;7.50;;;1.80;;
17494;SDS011;8864;51.970;4.614;2023-02-19T00:39:25;6.35;;;1.58;;
17494;SDS011;8864;51.970;4.614;2023-02-19T00:41:52;7.55;;;1.88;;
17494;SDS011;8864;51.970;4.614;2023-02-19T00:44:25;7.43;;;1.80;;
17494;SDS011;8864;51.970;4.614;2023-02-19T00:46:52;7.00;;;1.40;;
17494;SDS011;8864;51.970;4.614;2023-02-19T00:49:22;4.57;;;1.25;;
17494;SDS011;8864;51.970;4.614;2023-02-19T00:51:51;6.15;;;1.63;;
17494;SDS011;8864;51.970;4.614;2023-02-19T00:54:19;7.93;;;1.67;;
17494;SDS011;8864;51.970;4.614;2023-02-19T00:56:56;6.35;;;1.63;;
17494;SDS011;8864;51.970;4.614;2023-02-19T00:59:24;6.97;;;1.42;;
17494;SDS011;8864;51.970;4.614;2023-02-19T01:01:52;6.28;;;1.83;;
17494;SDS011;8864;51.970;4.614;2023-02-19T01:04:21;4.55;;;1.60;;
17494;SDS011;8864;51.970;4.614;2023-02-19T01:06:48;7.20;;;1.70;;
17494;SDS011;8864;51.970;4.614;2023-02-19T01:09:16;4.22;;;1.30;;
17494;SDS011;8864;51.970;4.614;2023-02-19T01:11:46;5.68;;;1.27;;
17494;SDS011;8864;51.970;4.614;2023-02-19T01:14:14;6.15;;;1.52;;
17494;SDS011;8864;51.970;4.614;2023-02-19T01:16:45;6.68;;;1.45;;
17494;SDS011;8864;51.970;4.614;2023-02-19T01:19:15;7.93;;;1.50;;
17494;SDS011;8864;51.970;4.614;2023-02-19T01:21:42;5.18;;;1.30;;
17494;SDS011;8864;51.970;4.614;2023-02-19T01:24:10;3.15;;;1.27;;
17494;SDS011;8864;51.970;4.614;2023-02-19T01:26:46;5.32;;;1.40;;
17494;SDS011;8864;51.970;4.614;2023-02-19T01:29:13;6.55;;;1.63;;
17494;SDS011;8864;51.970;4.614;2023-02-19T01:31:42;8.25;;;1.90;;
17494;SDS011;8864;51.970;4.614;2023-02-19T01:34:15;6.20;;;1.35;;
17494;SDS011;8864;51.970;4.614;2023-02-19T01:36:47;5.43;;;1.60;;
17494;SDS011;8864;51.970;4.614;2023-02-19T01:39:15;13.15;;;1.83;;
17494;SDS011;8864;51.970;4.614;2023-02-19T01:41:42;8.50;;;1.58;;
17494;SDS011;8864;51.970;4.614;2023-02-19T01:47:21;7.28;;;1.77;;
17494;SDS011;8864;51.970;4.614;2023-02-19T01:49:49;7.78;;;1.70;;
17494;SDS011;8864;51.970;4.614;2023-02-19T01:52:22;4.15;;;1.80;;
17494;SDS011;8864;51.970;4.614;2023-02-19T01:54:58;3.45;;;1.17;;
17494;SDS011;8864;51.970;4.614;2023-02-19T01:57:29;6.95;;;1.40;;
17494;SDS011;8864;51.970;4.614;2023-02-19T02:00:01;4.28;;;1.15;;
17494;SDS011;8864;51.970;4.614;2023-02-19T02:02:37;5.55;;;1.30;;
17494;SDS011;8864;51.970;4.614;2023-02-19T02:05:08;6.45;;;1.23;;
17494;SDS011;8864;51.970;4.614;2023-02-19T02:07:43;8.15;;;1.45;;
17494;SDS011;8864;51.970;4.614;2023-02-19T02:10:30;6.13;;;1.52;;
17494;SDS011;8864;51.970;4.614;2023-02-19T02:12:59;5.18;;;1.40;;
17494;SDS011;8864;51.970;4.614;2023-02-19T02:15:36;2.63;;;1.20;;
17494;SDS011;8864;51.970;4.614;2023-02-19T02:18:14;3.85;;;1.00;;
17494;SDS011;8864;51.970;4.614;2023-02-19T02:24:19;5.28;;;1.30;;
17494;SDS011;8864;51.970;4.614;2023-02-19T02:27:13;5.55;;;1.63;;
17494;SDS011;8864;51.970;4.614;2023-02-19T02:30:02;6.20;;;1.17;;
17494;SDS011;8864;51.970;4.614;2023-02-19T02:32:48;3.75;;;1.00;;
17494;SDS011;8864;51.970;4.614;2023-02-19T02:35:25;5.18;;;1.27;;
17494;SDS011;8864;51.970;4.614;2023-02-19T02:37:55;4.18;;;1.40;;
17494;SDS011;8864;51.970;4.614;2023-02-19T02:40:25;3.92;;;1.23;;
17494;SDS011;8864;51.970;4.614;2023-02-19T02:42:56;4.72;;;1.35;;
17494;SDS011;8864;51.970;4.614;2023-02-19T02:45:27;7.63;;;1.20;;
17494;SDS011;8864;51.970;4.614;2023-02-19T02:48:09;3.40;;;0.95;;
17494;SDS011;8864;51.970;4.614;2023-02-19T02:50:42;6.45;;;1.67;;
17494;SDS011;8864;51.970;4.614;2023-02-19T02:53:16;7.03;;;1.35;;
17494;SDS011;8864;51.970;4.614;2023-02-19T02:56:03;5.55;;;1.30;;
17494;SDS011;8864;51.970;4.614;2023-02-19T02:58:31;6.53;;;1.38;;
17494;SDS011;8864;51.970;4.614;2023-02-19T03:01:05;7.68;;;1.60;;
17494;SDS011;8864;51.970;4.614;2023-02-19T03:03:54;4.47;;;1.40;;
17494;SDS011;8864;51.970;4.614;2023-02-19T03:06:25;5.78;;;1.33;;
17494;SDS011;8864;51.970;4.614;2023-02-19T03:09:00;6.28;;;1.38;;
17494;SDS011;8864;51.970;4.614;2023-02-19T03:11:33;4.13;;;1.40;;
17494;SDS011;8864;51.970;4.614;2023-02-19T03:14:23;4.22;;;1.33;;
17494;SDS011;8864;51.970;4.614;2023-02-19T03:17:14;6.68;;;1.35;;
17494;SDS011;8864;51.970;4.614;2023-02-19T03:20:02;5.13;;;1.17;;
17494;SDS011;8864;51.970;4.614;2023-02-19T03:22:34;4.90;;;1.20;;
17494;SDS011;8864;51.970;4.614;2023-02-19T03:25:09;5.93;;;1.25;;
17494;SDS011;8864;51.970;4.614;2023-02-19T03:27:58;8.10;;;1.42;;
17494;SDS011;8864;51.970;4.614;2023-02-19T03:30:27;3.55;;;0.98;;
17494;SDS011;8864;51.970;4.614;2023-02-19T03:33:11;3.78;;;1.08;;
17494;SDS011;8864;51.970;4.614;2023-02-19T03:35:43;3.30;;;1.10;;
17494;SDS011;8864;51.970;4.614;2023-02-19T03:38:15;6.22;;;1.20;;
17494;SDS011;8864;51.970;4.614;2023-02-19T03:40:50;3.58;;;1.10;;
17494;SDS011;8864;51.970;4.614;2023-02-19T03:43:38;7.07;;;1.13;;
17494;SDS011;8864;51.970;4.614;2023-02-19T03:46:10;9.38;;;1.55;;
17494;SDS011;8864;51.970;4.614;2023-02-19T03:48:49;4.30;;;1.10;;
17494;SDS011;8864;51.970;4.614;2023-02-19T03:51:26;3.40;;;1.30;;
17494;SDS011;8864;51.970;4.614;2023-02-19T03:54:01;5.70;;;1.35;;
17494;SDS011;8864;51.970;4.614;2023-02-19T03:56:37;6.32;;;1.27;;
17494;SDS011;8864;51.970;4.614;2023-02-19T03:59:12;6.15;;;1.70;;
17494;SDS011;8864;51.970;4.614;2023-02-19T04:01:49;5.40;;;1.30;;
17494;SDS011;8864;51.970;4.614;2023-02-19T04:04:22;3.45;;;1.15;;
17494;SDS011;8864;51.970;4.614;2023-02-19T04:06:54;3.50;;;1.30;;
17494;SDS011;8864;51.970;4.614;2023-02-19T04:09:24;4.13;;;1.20;;
17494;SDS011;8864;51.970;4.614;2023-02-19T04:11:56;5.53;;;1.20;;
17494;SDS011;8864;51.970;4.614;2023-02-19T04:14:31;4.53;;;1.20;;
17494;SDS011;8864;51.970;4.614;2023-02-19T04:17:01;5.72;;;1.42;;
17494;SDS011;8864;51.970;4.614;2023-02-19T04:19:43;3.78;;;1.00;;
17494;SDS011;8864;51.970;4.614;2023-02-19T04:22:13;7.93;;;1.35;;
17494;SDS011;8864;51.970;4.614;2023-02-19T04:24:43;7.05;;;1.40;;
17494;SDS011;8864;51.970;4.614;2023-02-19T04:27:16;3.55;;;1.27;;
17494;SDS011;8864;51.970;4.614;2023-02-19T04:29:45;5.57;;;1.30;;
17494;SDS011;8864;51.970;4.614;2023-02-19T04:32:13;5.00;;;1.23;;
17494;SDS011;8864;51.970;4.614;2023-02-19T04:34:42;6.45;;;1.40;;
17494;SDS011;8864;51.970;4.614;2023-02-19T04:37:09;3.35;;;1.20;;
17494;SDS011;8864;51.970;4.614;2023-02-19T04:39:36;7.18;;;1.50;;
17494;SDS011;8864;51.970;4.614;2023-02-19T04:42:03;5.13;;;1.23;;
17494;SDS011;8864;51.970;4.614;2023-02-19T04:44:44;4.32;;;1.20;;
17494;SDS011;8864;51.970;4.614;2023-02-19T04:47:12;6.13;;;1.73;;
17494;SDS011;8864;51.970;4.614;2023-02-19T04:49:43;4.03;;;1.02;;
17494;SDS011;8864;51.970;4.614;2023-02-19T04:52:10;7.95;;;1.10;;
17494;SDS011;8864;51.970;4.614;2023-02-19T04:54:38;13.75;;;1.27;;
17494;SDS011;8864;51.970;4.614;2023-02-19T04:57:05;5.25;;;1.30;;
17494;SDS011;8864;51.970;4.614;2023-02-19T04:59:34;4.68;;;1.13;;
17494;SDS011;8864;51.970;4.614;2023-02-19T05:02:06;4.75;;;1.20;;
17494;SDS011;8864;51.970;4.614;2023-02-19T05:04:35;5.97;;;1.63;;
17494;SDS011;8864;51.970;4.614;2023-02-19T05:07:04;5.35;;;1.52;;
17494;SDS011;8864;51.970;4.614;2023-02-19T05:09:32;6.18;;;1.23;;
17494;SDS011;8864;51.970;4.614;2023-02-19T05:11:59;7.13;;;1.40;;
17494;SDS011;8864;51.970;4.614;2023-02-19T05:14:27;5.97;;;1.42;;
17494;SDS011;8864;51.970;4.614;2023-02-19T05:16:54;5.47;;;1.45;;
17494;SDS011;8864;51.970;4.614;2023-02-19T05:19:22;4.43;;;1.00;;
17494;SDS011;8864;51.970;4.614;2023-02-19T05:21:50;6.00;;;1.40;;
17494;SDS011;8864;51.970;4.614;2023-02-19T05:24:19;5.05;;;1.30;;
17494;SDS011;8864;51.970;4.614;2023-02-19T05:26:51;5.78;;;1.50;;
17494;SDS011;8864;51.970;4.614;2023-02-19T05:29:18;4.38;;;1.10;;
17494;SDS011;8864;51.970;4.614;2023-02-19T05:31:47;7.63;;;1.20;;
17494;SDS011;8864;51.970;4.614;2023-02-19T05:34:14;4.38;;;1.02;;
17494;SDS011;8864;51.970;4.614;2023-02-19T05:36:43;6.35;;;1.52;;
17494;SDS011;8864;51.970;4.614;2023-02-19T05:39:13;3.88;;;1.08;;
17494;SDS011;8864;51.970;4.614;2023-02-19T05:41:45;6.05;;;1.20;;
17494;SDS011;8864;51.970;4.614;2023-02-19T05:44:13;3.78;;;1.02;;
17494;SDS011;8864;51.970;4.614;2023-02-19T05:46:40;5.90;;;1.10;;
17494;SDS011;8864;51.970;4.614;2023-02-19T05:49:10;5.07;;;1.10;;
17494;SDS011;8864;51.970;4.614;2023-02-19T05:51:38;5.40;;;1.00;;
17494;SDS011;8864;51.970;4.614;2023-02-19T05:54:05;4.80;;;1.10;;
17494;SDS011;8864;51.970;4.614;2023-02-19T05:56:32;4.60;;;1.50;;
17494;SDS011;8864;51.970;4.614;2023-02-19T05:59:05;3.55;;;1.20;;
17494;SDS011;8864;51.970;4.614;2023-02-19T06:01:47;3.97;;;1.13;;
17494;SDS011;8864;51.970;4.614;2023-02-19T06:04:18;6.13;;;1.30;;
17494;SDS011;8864;51.970;4.614;2023-02-19T06:06:47;4.22;;;1.17;;
17494;SDS011;8864;51.970;4.614;2023-02-19T06:09:16;3.78;;;1.08;;
17494;SDS011;8864;51.970;4.614;2023-02-19T06:11:43;2.00;;;0.80;;
17494;SDS011;8864;51.970;4.614;2023-02-19T06:14:12;4.50;;;1.00;;
17494;SDS011;8864;51.970;4.614;2023-02-19T06:16:41;4.65;;;1.10;;
17494;SDS011;8864;51.970;4.614;2023-02-19T06:19:14;5.35;;;1.15;;
17494;SDS011;8864;51.970;4.614;2023-02-19T06:21:48;4.07;;;1.10;;
17494;SDS011;8864;51.970;4.614;2023-02-19T06:24:18;6.53;;;1.33;;
17494;SDS011;8864;51.970;4.614;2023-02-19T06:26:45;4.43;;;1.08;;
17494;SDS011;8864;51.970;4.614;2023-02-19T06:29:16;4.88;;;1.15;;
17494;SDS011;8864;51.970;4.614;2023-02-19T06:31:46;3.67;;;1.42;;
17494;SDS011;8864;51.970;4.614;2023-02-19T06:34:20;2.35;;;0.90;;
17494;SDS011;8864;51.970;4.614;2023-02-19T06:36:50;2.65;;;1.30;;
17494;SDS011;8864;51.970;4.614;2023-02-19T06:39:19;6.22;;;1.30;;
17494;SDS011;8864;51.970;4.614;2023-02-19T06:41:49;2.55;;;1.15;;
17494;SDS011;8864;51.970;4.614;2023-02-19T06:44:25;4.47;;;1.00;;
17494;SDS011;8864;51.970;4.614;2023-02-19T06:46:53;5.50;;;1.30;;
17494;SDS011;8864;51.970;4.614;2023-02-19T06:49:23;3.72;;;1.08;;
17494;SDS011;8864;51.970;4.614;2023-02-19T06:51:51;2.75;;;0.98;;
17494;SDS011;8864;51.970;4.614;2023-02-19T06:54:18;4.75;;;1.13;;
17494;SDS011;8864;51.970;4.614;2023-02-19T06:56:48;4.18;;;1.08;;
17494;SDS011;8864;51.970;4.614;2023-02-19T06:59:15;5.57;;;1.08;;
17494;SDS011;8864;51.970;4.614;2023-02-19T07:01:43;9.07;;;1.10;;
17494;SDS011;8864;51.970;4.614;2023-02-19T07:04:11;4.60;;;1.00;;
17494;SDS011;8864;51.970;4.614;2023-02-19T07:06:44;5.93;;;1.35;;
17494;SDS011;8864;51.970;4.614;2023-02-19T07:09:11;6.72;;;1.30;;
17494;SDS011;8864;51.970;4.614;2023-02-19T07:11:39;5.65;;;0.88;;
17494;SDS011;8864;51.970;4.614;2023-02-19T07:14:12;4.80;;;1.20;;
17494;SDS011;8864;51.970;4.614;2023-02-19T07:16:44;4.97;;;1.00;;
17494;SDS011;8864;51.970;4.614;2023-02-19T07:19:15;1.40;;;0.60;;
17494;SDS011;8864;51.970;4.614;2023-02-19T07:21:43;6.95;;;1.15;;
17494;SDS011;8864;51.970;4.614;2023-02-19T07:24:11;2.72;;;0.90;;
17494;SDS011;8864;51.970;4.614;2023-02-19T07:26:49;3.53;;;1.20;;
17494;SDS011;8864;51.970;4.614;2023-02-19T07:29:27;3.38;;;0.85;;
17494;SDS011;8864;51.970;4.614;2023-02-19T07:31:56;4.40;;;1.13;;
17494;SDS011;8864;51.970;4.614;2023-02-19T07:34:28;2.72;;;1.00;;
17494;SDS011;8864;51.970;4.614;2023-02-19T07:37:00;4.78;;;1.30;;
17494;SDS011;8864;51.970;4.614;2023-02-19T07:39:31;5.05;;;0.93;;
17494;SDS011;8864;51.970;4.614;2023-02-19T07:42:00;2.97;;;0.95;;
17494;SDS011;8864;51.970;4.614;2023-02-19T07:44:31;5.03;;;0.98;;
17494;SDS011;8864;51.970;4.614;2023-02-19T07:47:02;3.60;;;0.88;;
17494;SDS011;8864;51.970;4.614;2023-02-19T07:49:30;6.40;;;1.20;;
17494;SDS011;8864;51.970;4.614;2023-02-19T07:51:59;3.10;;;1.38;;
17494;SDS011;8864;51.970;4.614;2023-02-19T07:54:30;3.55;;;0.90;;
17494;SDS011;8864;51.970;4.614;2023-02-19T07:57:00;6.70;;;1.02;;
17494;SDS011;8864;51.970;4.614;2023-02-19T07:59:30;5.95;;;1.15;;
17494;SDS011;8864;51.970;4.614;2023-02-19T08:02:10;5.88;;;1.10;;
17494;SDS011;8864;51.970;4.614;2023-02-19T08:04:59;2.58;;;1.10;;
17494;SDS011;8864;51.970;4.614;2023-02-19T08:07:29;15.27;;;2.58;;
17494;SDS011;8864;51.970;4.614;2023-02-19T08:10:03;14.45;;;2.67;;
17494;SDS011;8864;51.970;4.614;2023-02-19T08:12:57;16.00;;;3.25;;
17494;SDS011;8864;51.970;4.614;2023-02-19T08:15:47;10.90;;;3.00;;
17494;SDS011;8864;51.970;4.614;2023-02-19T08:18:22;14.10;;;2.80;;
17494;SDS011;8864;51.970;4.614;2023-02-19T08:20:51;11.43;;;2.30;;
17494;SDS011;8864;51.970;4.614;2023-02-19T08:23:20;17.23;;;2.83;;
17494;SDS011;8864;51.970;4.614;2023-02-19T08:25:56;16.38;;;2.78;;
17494;SDS011;8864;51.970;4.614;2023-02-19T08:28:28;9.18;;;2.00;;
17494;SDS011;8864;51.970;4.614;2023-02-19T08:30:57;17.30;;;2.53;;
17494;SDS011;8864;51.970;4.614;2023-02-19T08:33:32;12.43;;;3.00;;
17494;SDS011;8864;51.970;4.614;2023-02-19T08:36:02;11.73;;;2.13;;
17494;SDS011;8864;51.970;4.614;2023-02-19T08:38:31;9.90;;;2.25;;
17494;SDS011;8864;51.970;4.614;2023-02-19T08:41:02;10.43;;;2.38;;
17494;SDS011;8864;51.970;4.614;2023-02-19T08:43:33;9.27;;;2.30;;
17494;SDS011;8864;51.970;4.614;2023-02-19T08:46:09;14.75;;;2.83;;
17494;SDS011;8864;51.970;4.614;2023-02-19T08:48:43;8.25;;;2.60;;
17494;SDS011;8864;51.970;4.614;2023-02-19T08:51:16;13.82;;;2.47;;
17494;SDS011;8864;51.970;4.614;2023-02-19T08:53:49;12.30;;;2.05;;
17494;SDS011;8864;51.970;4.614;2023-02-19T08:56:16;12.50;;;2.10;;
17494;SDS011;8864;51.970;4.614;2023-02-19T08:58:45;7.70;;;2.08;;
17494;SDS011;8864;51.970;4.614;2023-02-19T09:01:16;9.85;;;2.20;;
17494;SDS011;8864;51.970;4.614;2023-02-19T09:03:45;12.48;;;2.03;;
17494;SDS011;8864;51.970;4.614;2023-02-19T09:06:15;6.30;;;2.03;;
17494;SDS011;8864;51.970;4.614;2023-02-19T09:09:00;6.53;;;2.03;;
17494;SDS011;8864;51.970;4.614;2023-02-19T09:11:28;9.70;;;2.45;;
17494;SDS011;8864;51.970;4.614;2023-02-19T09:13:58;10.27;;;2.53;;
17494;SDS011;8864;51.970;4.614;2023-02-19T09:16:26;8.32;;;1.73;;
17494;SDS011;8864;51.970;4.614;2023-02-19T09:18:59;9.27;;;2.20;;
17494;SDS011;8864;51.970;4.614;2023-02-19T09:21:28;6.80;;;1.85;;
17494;SDS011;8864;51.970;4.614;2023-02-19T09:23:57;6.10;;;1.67;;
17494;SDS011;8864;51.970;4.614;2023-02-19T09:26:27;6.72;;;1.73;;
17494;SDS011;8864;51.970;4.614;2023-02-19T09:28:57;11.90;;;1.77;;
17494;SDS011;8864;51.970;4.614;2023-02-19T09:31:29;6.63;;;2.05;;
17494;SDS011;8864;51.970;4.614;2023-02-19T09:33:56;8.73;;;2.22;;
17494;SDS011;8864;51.970;4.614;2023-02-19T09:36:24;5.65;;;1.42;;
17494;SDS011;8864;51.970;4.614;2023-02-19T09:39:05;6.43;;;1.83;;
17494;SDS011;8864;51.970;4.614;2023-02-19T09:41:41;5.22;;;1.50;;
17494;SDS011;8864;51.970;4.614;2023-02-19T09:44:31;7.43;;;1.60;;
17494;SDS011;8864;51.970;4.614;2023-02-19T09:47:02;6.57;;;1.63;;
17494;SDS011;8864;51.970;4.614;2023-02-19T09:49:41;6.70;;;1.60;;
17494;SDS011;8864;51.970;4.614;2023-02-19T09:52:22;6.88;;;1.98;;
17494;SDS011;8864;51.970;4.614;2023-02-19T09:55:00;5.53;;;1.73;;
17494;SDS011;8864;51.970;4.614;2023-02-19T09:57:42;11.00;;;1.70;;
17494;SDS011;8864;51.970;4.614;2023-02-19T10:00:17;7.07;;;1.45;;
17494;SDS011;8864;51.970;4.614;2023-02-19T10:02:50;6.75;;;1.70;;
17494;SDS011;8864;51.970;4.614;2023-02-19T10:05:26;7.03;;;1.33;;
17494;SDS011;8864;51.970;4.614;2023-02-19T10:07:55;6.18;;;1.15;;
17494;SDS011;8864;51.970;4.614;2023-02-19T10:10:31;4.03;;;1.02;;
17494;SDS011;8864;51.970;4.614;2023-02-19T10:13:08;3.92;;;1.25;;
17494;SDS011;8864;51.970;4.614;2023-02-19T10:15:43;4.20;;;1.27;;
17494;SDS011;8864;51.970;4.614;2023-02-19T10:18:17;6.35;;;1.52;;
17494;SDS011;8864;51.970;4.614;2023-02-19T10:20:48;4.47;;;1.27;;
17494;SDS011;8864;51.970;4.614;2023-02-19T10:23:19;3.95;;;1.13;;
17494;SDS011;8864;51.970;4.614;2023-02-19T10:25:48;3.65;;;1.20;;
17494;SDS011;8864;51.970;4.614;2023-02-19T10:28:19;4.05;;;1.08;;
17494;SDS011;8864;51.970;4.614;2023-02-19T10:30:55;4.40;;;0.90;;
17494;SDS011;8864;51.970;4.614;2023-02-19T10:33:26;4.20;;;1.17;;
17494;SDS011;8864;51.970;4.614;2023-02-19T10:35:57;4.75;;;1.27;;
17494;SDS011;8864;51.970;4.614;2023-02-19T10:38:28;6.00;;;0.82;;
17494;SDS011;8864;51.970;4.614;2023-02-19T10:41:03;2.45;;;1.13;;
17494;SDS011;8864;51.970;4.614;2023-02-19T10:43:33;5.65;;;1.10;;
17494;SDS011;8864;51.970;4.614;2023-02-19T10:46:13;7.07;;;0.82;;
17494;SDS011;8864;51.970;4.614;2023-02-19T10:48:51;5.15;;;1.02;;
17494;SDS011;8864;51.970;4.614;2023-02-19T10:51:29;4.57;;;1.00;;
17494;SDS011;8864;51.970;4.614;2023-02-19T10:56:54;5.50;;;1.20;;
17494;SDS011;8864;51.970;4.614;2023-02-19T10:59:59;5.65;;;0.95;;
17494;SDS011;8864;51.970;4.614;2023-02-19T11:02:29;1.67;;;0.73;;
17494;SDS011;8864;51.970;4.614;2023-02-19T11:05:17;3.95;;;0.70;;
17494;SDS011;8864;51.970;4.614;2023-02-19T11:07:46;7.97;;;0.85;;
17494;SDS011;8864;51.970;4.614;2023-02-19T11:10:33;3.22;;;0.65;;
17494;SDS011;8864;51.970;4.614;2023-02-19T11:13:05;3.28;;;0.70;;
17494;SDS011;8864;51.970;4.614;2023-02-19T11:15:39;3.35;;;0.63;;
17494;SDS011;8864;51.970;4.614;2023-02-19T11:18:26;2.97;;;0.60;;
17494;SDS011;8864;51.970;4.614;2023-02-19T11:20:57;1.75;;;0.77;;
17494;SDS011;8864;51.970;4.614;2023-02-19T11:23:28;3.15;;;0.80;;
17494;SDS011;8864;51.970;4.614;2023-02-19T11:26:00;1.77;;;0.52;;
17494;SDS011;8864;51.970;4.614;2023-02-19T11:28:31;2.58;;;0.85;;
17494;SDS011;8864;51.970;4.614;2023-02-19T11:31:14;1.92;;;0.73;;
17494;SDS011;8864;51.970;4.614;2023-02-19T11:33:50;5.70;;;0.80;;
17494;SDS011;8864;51.970;4.614;2023-02-19T11:36:39;2.42;;;0.90;;
17494;SDS011;8864;51.970;4.614;2023-02-19T11:39:18;4.60;;;0.70;;
17494;SDS011;8864;51.970;4.614;2023-02-19T11:42:13;3.35;;;0.80;;
17494;SDS011;8864;51.970;4.614;2023-02-19T11:44:52;3.72;;;0.50;;
17494;SDS011;8864;51.970;4.614;2023-02-19T11:47:50;1.20;;;0.60;;
17494;SDS011;8864;51.970;4.614;2023-02-19T11:50:39;2.08;;;0.70;;
17494;SDS011;8864;51.970;4.614;2023-02-19T11:53:15;2.20;;;0.70;;
17494;SDS011;8864;51.970;4.614;2023-02-19T11:55:54;3.88;;;0.98;;
17494;SDS011;8864;51.970;4.614;2023-02-19T11:58:47;3.47;;;0.77;;
17494;SDS011;8864;51.970;4.614;2023-02-19T12:01:34;3.72;;;0.90;;
17494;SDS011;8864;51.970;4.614;2023-02-19T12:04:48;2.75;;;0.68;;
17494;SDS011;8864;51.970;4.614;2023-02-19T12:10:54;3.45;;;0.60;;
17494;SDS011;8864;51.970;4.614;2023-02-19T12:13:58;4.10;;;0.57;;
17494;SDS011;8864;51.970;4.614;2023-02-19T12:16:39;2.33;;;0.63;;
17494;SDS011;8864;51.970;4.614;2023-02-19T12:19:25;5.38;;;0.70;;
17494;SDS011;8864;51.970;4.614;2023-02-19T12:22:14;1.67;;;0.60;;
17494;SDS011;8864;51.970;4.614;2023-02-19T12:27:53;1.30;;;0.43;;
17494;SDS011;8864;51.970;4.614;2023-02-19T12:30:50;4.15;;;0.73;;
17494;SDS011;8864;51.970;4.614;2023-02-19T12:33:34;1.73;;;0.70;;
17494;SDS011;8864;51.970;4.614;2023-02-19T12:36:36;2.53;;;0.75;;
17494;SDS011;8864;51.970;4.614;2023-02-19T12:39:11;2.60;;;0.60;;
17494;SDS011;8864;51.970;4.614;2023-02-19T12:41:43;2.17;;;0.60;;
17494;SDS011;8864;51.970;4.614;2023-02-19T12:44:20;2.53;;;0.63;;
17494;SDS011;8864;51.970;4.614;2023-02-19T12:46:58;1.75;;;0.40;;
17494;SDS011;8864;51.970;4.614;2023-02-19T12:49:34;1.13;;;0.50;;
17494;SDS011;8864;51.970;4.614;2023-02-19T12:52:09;1.45;;;0.40;;
17494;SDS011;8864;51.970;4.614;2023-02-19T12:54:42;2.45;;;0.50;;
17494;SDS011;8864;51.970;4.614;2023-02-19T12:57:15;3.28;;;0.57;;
17494;SDS011;8864;51.970;4.614;2023-02-19T12:59:57;1.17;;;0.47;;
17494;SDS011;8864;51.970;4.614;2023-02-19T13:02:34;3.85;;;0.70;;
17494;SDS011;8864;51.970;4.614;2023-02-19T13:05:19;2.85;;;0.50;;
17494;SDS011;8864;51.970;4.614;2023-02-19T13:07:55;1.35;;;0.50;;
17494;SDS011;8864;51.970;4.614;2023-02-19T13:10:28;3.20;;;0.80;;
17494;SDS011;8864;51.970;4.614;2023-02-19T13:13:03;1.75;;;0.52;;
17494;SDS011;8864;51.970;4.614;2023-02-19T13:15:40;2.15;;;0.60;;
17494;SDS011;8864;51.970;4.614;2023-02-19T13:18:17;1.58;;;0.40;;
17494;SDS011;8864;51.970;4.614;2023-02-19T13:20:59;3.22;;;0.65;;
17494;SDS011;8864;51.970;4.614;2023-02-19T13:23:30;1.08;;;0.40;;
17494;SDS011;8864;51.970;4.614;2023-02-19T13:29:28;0.77;;;0.40;;
17494;SDS011;8864;51.970;4.614;2023-02-19T13:35:29;0.93;;;0.45;;
17494;SDS011;8864;51.970;4.614;2023-02-19T13:38:19;0.82;;;0.60;;
17494;SDS011;8864;51.970;4.614;2023-02-19T13:40:52;1.48;;;0.50;;
17494;SDS011;8864;51.970;4.614;2023-02-19T13:43:24;1.23;;;0.43;;
17494;SDS011;8864;51.970;4.614;2023-02-19T13:45:57;1.10;;;0.50;;
17494;SDS011;8864;51.970;4.614;2023-02-19T13:48:27;1.10;;;0.40;;
17494;SDS011;8864;51.970;4.614;2023-02-19T13:54:29;0.95;;;0.35;;
17494;SDS011;8864;51.970;4.614;2023-02-19T14:03:26;1.08;;;0.43;;
17494;SDS011;8864;51.970;4.614;2023-02-19T14:05:57;0.90;;;0.50;;
17494;SDS011;8864;51.970;4.614;2023-02-19T14:08:54;1.15;;;0.47;;
17494;SDS011;8864;51.970;4.614;2023-02-19T14:12:17;0.82;;;0.40;;
17494;SDS011;8864;51.970;4.614;2023-02-19T14:14:45;1.55;;;0.60;;
17494;SDS011;8864;51.970;4.614;2023-02-19T14:17:24;0.80;;;0.30;;
17494;SDS011;8864;51.970;4.614;2023-02-19T14:20:08;1.08;;;0.30;;
17494;SDS011;8864;51.970;4.614;2023-02-19T14:23:15;0.32;;;0.30;;
17494;SDS011;8864;51.970;4.614;2023-02-19T14:25:51;7.38;;;0.50;;
17494;SDS011;8864;51.970;4.614;2023-02-19T14:28:32;2.50;;;0.50;;
17494;SDS011;8864;51.970;4.614;2023-02-19T14:31:07;2.83;;;0.68;;
17494;SDS011;8864;51.970;4.614;2023-02-19T14:33:43;1.27;;;0.30;;
17494;SDS011;8864;51.970;4.614;2023-02-19T14:36:15;1.27;;;0.50;;
17494;SDS011;8864;51.970;4.614;2023-02-19T14:38:49;0.55;;;0.35;;
17494;SDS011;8864;51.970;4.614;2023-02-19T14:41:18;1.20;;;0.40;;
17494;SDS011;8864;51.970;4.614;2023-02-19T14:43:59;1.20;;;0.50;;
17494;SDS011;8864;51.970;4.614;2023-02-19T14:46:28;1.73;;;0.40;;
17494;SDS011;8864;51.970;4.614;2023-02-19T14:49:00;2.67;;;0.50;;
17494;SDS011;8864;51.970;4.614;2023-02-19T14:51:34;1.98;;;0.43;;
17494;SDS011;8864;51.970;4.614;2023-02-19T14:54:24;2.35;;;0.60;;
17494;SDS011;8864;51.970;4.614;2023-02-19T14:57:02;1.45;;;0.50;;
17494;SDS011;8864;51.970;4.614;2023-02-19T14:59:35;1.10;;;0.57;;
17494;SDS011;8864;51.970;4.614;2023-02-19T15:02:11;1.27;;;0.40;;
17494;SDS011;8864;51.970;4.614;2023-02-19T15:04:44;0.75;;;0.30;;
17494;SDS011;8864;51.970;4.614;2023-02-19T15:07:14;0.73;;;0.40;;
17494;SDS011;8864;51.970;4.614;2023-02-19T15:09:45;0.45;;;0.38;;
17494;SDS011;8864;51.970;4.614;2023-02-19T15:12:15;0.25;;;0.25;;
17494;SDS011;8864;51.970;4.614;2023-02-19T15:14:46;1.65;;;0.43;;
17494;SDS011;8864;51.970;4.614;2023-02-19T15:17:19;0.50;;;0.40;;
17494;SDS011;8864;51.970;4.614;2023-02-19T15:19:53;1.50;;;0.45;;
17494;SDS011;8864;51.970;4.614;2023-02-19T15:22:25;2.72;;;0.50;;
17494;SDS011;8864;51.970;4.614;2023-02-19T15:24:58;3.15;;;0.50;;
17494;SDS011;8864;51.970;4.614;2023-02-19T15:27:26;1.25;;;0.35;;
17494;SDS011;8864;51.970;4.614;2023-02-19T15:29:56;1.13;;;0.40;;
17494;SDS011;8864;51.970;4.614;2023-02-19T15:32:29;0.98;;;0.47;;
17494;SDS011;8864;51.970;4.614;2023-02-19T15:34:57;2.28;;;0.40;;
17494;SDS011;8864;51.970;4.614;2023-02-19T15:37:28;2.60;;;0.50;;
17494;SDS011;8864;51.970;4.614;2023-02-19T15:40:07;1.20;;;0.40;;
17494;SDS011;8864;51.970;4.614;2023-02-19T15:42:42;9.85;;;1.00;;
17494;SDS011;8864;51.970;4.614;2023-02-19T15:45:20;11.40;;;1.50;;
17494;SDS011;8864;51.970;4.614;2023-02-19T15:47:56;7.25;;;0.80;;
17494;SDS011;8864;51.970;4.614;2023-02-19T15:50:41;11.50;;;0.90;;
17494;SDS011;8864;51.970;4.614;2023-02-19T15:53:13;5.82;;;0.75;;
17494;SDS011;8864;51.970;4.614;2023-02-19T15:55:43;2.90;;;0.80;;
17494;SDS011;8864;51.970;4.614;2023-02-19T15:58:16;1.35;;;0.55;;
17494;SDS011;8864;51.970;4.614;2023-02-19T16:00:49;3.78;;;0.40;;
17494;SDS011;8864;51.970;4.614;2023-02-19T16:03:23;1.42;;;0.60;;
17494;SDS011;8864;51.970;4.614;2023-02-19T16:05:58;3.25;;;0.50;;
17494;SDS011;8864;51.970;4.614;2023-02-19T16:08:29;1.30;;;0.50;;
17494;SDS011;8864;51.970;4.614;2023-02-19T16:11:00;2.33;;;0.45;;
17494;SDS011;8864;51.970;4.614;2023-02-19T16:13:29;2.80;;;0.55;;
17494;SDS011;8864;51.970;4.614;2023-02-19T16:16:02;1.58;;;0.40;;